sensor_id;sensor_type;location;lat;lon;timestamp;P1;durP1;ratioP1;P2;durP2;ratioP2
11481;SDS011;5797;51.662;6.748;2023-05-10T00:00:57;11.30;;;5.67;;
11481;SDS011;5797;51.662;6.748;2023-05-10T00:03:26;11.10;;;6.53;;
11481;SDS011;5797;51.662;6.748;2023-05-10T00:05:54;11.73;;;7.00;;
11481;SDS011;5797;51.662;6.748;2023-05-10T00:08:24;13.47;;;7.47;;
11481;SDS011;5797;51.662;6.748;2023-05-10T00:10:52;10.73;;;6.43;;
11481;SDS011;5797;51.662;6.748;2023-05-10T00:13:21;12.80;;;7.17;;
11481;SDS011;5797;51.662;6.748;2023-05-10T00:15:50;12.17;;;7.03;;
11481;SDS011;5797;51.662;6.748;2023-05-10T00:18:18;14.47;;;7.13;;
11481;SDS011;5797;51.662;6.748;2023-05-10T00:20:47;12.30;;;7.10;;
11481;SDS011;5797;51.662;6.748;2023-05-10T00:23:15;14.60;;;7.73;;
11481;SDS011;5797;51.662;6.748;2023-05-10T00:25:45;13.27;;;6.87;;
11481;SDS011;5797;51.662;6.748;2023-05-10T00:28:13;15.33;;;7.10;;
11481;SDS011;5797;51.662;6.748;2023-05-10T00:30:42;13.30;;;7.13;;
11481;SDS011;5797;51.662;6.748;2023-05-10T00:33:10;11.27;;;7.23;;
11481;SDS011;5797;51.662;6.748;2023-05-10T00:35:39;14.03;;;7.60;;
11481;SDS011;5797;51.662;6.748;2023-05-10T00:38:08;13.97;;;8.10;;
11481;SDS011;5797;51.662;6.748;2023-05-10T00:40:37;12.63;;;7.67;;
11481;SDS011;5797;51.662;6.748;2023-05-10T00:43:12;12.70;;;7.40;;
11481;SDS011;5797;51.662;6.748;2023-05-10T00:45:40;14.10;;;7.90;;
11481;SDS011;5797;51.662;6.748;2023-05-10T00:48:09;13.67;;;7.80;;
11481;SDS011;5797;51.662;6.748;2023-05-10T00:50:37;12.93;;;7.50;;
11481;SDS011;5797;51.662;6.748;2023-05-10T00:53:07;14.83;;;7.37;;
11481;SDS011;5797;51.662;6.748;2023-05-10T00:55:35;14.33;;;8.20;;
11481;SDS011;5797;51.662;6.748;2023-05-10T00:58:04;13.40;;;7.50;;
11481;SDS011;5797;51.662;6.748;2023-05-10T01:00:34;12.37;;;7.10;;
11481;SDS011;5797;51.662;6.748;2023-05-10T01:03:04;12.67;;;7.37;;
11481;SDS011;5797;51.662;6.748;2023-05-10T01:05:33;12.13;;;7.37;;
11481;SDS011;5797;51.662;6.748;2023-05-10T01:08:01;12.70;;;7.23;;
11481;SDS011;5797;51.662;6.748;2023-05-10T01:10:30;12.53;;;7.73;;
11481;SDS011;5797;51.662;6.748;2023-05-10T01:12:59;13.63;;;7.63;;
11481;SDS011;5797;51.662;6.748;2023-05-10T01:15:28;15.23;;;7.77;;
11481;SDS011;5797;51.662;6.748;2023-05-10T01:17:58;14.70;;;7.90;;
11481;SDS011;5797;51.662;6.748;2023-05-10T01:20:29;14.07;;;8.03;;
11481;SDS011;5797;51.662;6.748;2023-05-10T01:23:07;14.00;;;7.97;;
11481;SDS011;5797;51.662;6.748;2023-05-10T01:25:50;14.67;;;7.90;;
11481;SDS011;5797;51.662;6.748;2023-05-10T01:28:37;13.63;;;7.50;;
11481;SDS011;5797;51.662;6.748;2023-05-10T01:31:30;17.77;;;7.87;;
11481;SDS011;5797;51.662;6.748;2023-05-10T01:34:08;12.63;;;7.17;;
11481;SDS011;5797;51.662;6.748;2023-05-10T01:36:39;15.00;;;8.30;;
11481;SDS011;5797;51.662;6.748;2023-05-10T01:39:11;11.57;;;7.00;;
11481;SDS011;5797;51.662;6.748;2023-05-10T01:41:44;14.07;;;7.97;;
11481;SDS011;5797;51.662;6.748;2023-05-10T01:44:18;14.30;;;8.17;;
11481;SDS011;5797;51.662;6.748;2023-05-10T01:46:51;13.67;;;7.37;;
11481;SDS011;5797;51.662;6.748;2023-05-10T01:49:25;13.17;;;7.97;;
11481;SDS011;5797;51.662;6.748;2023-05-10T01:51:56;13.90;;;7.93;;
11481;SDS011;5797;51.662;6.748;2023-05-10T01:54:28;12.93;;;7.50;;
11481;SDS011;5797;51.662;6.748;2023-05-10T01:56:59;13.43;;;8.10;;
11481;SDS011;5797;51.662;6.748;2023-05-10T01:59:31;16.90;;;8.97;;
11481;SDS011;5797;51.662;6.748;2023-05-10T02:02:03;20.60;;;9.80;;
11481;SDS011;5797;51.662;6.748;2023-05-10T02:04:33;18.03;;;9.40;;
11481;SDS011;5797;51.662;6.748;2023-05-10T02:07:04;19.73;;;8.73;;
11481;SDS011;5797;51.662;6.748;2023-05-10T02:09:33;21.40;;;9.60;;
11481;SDS011;5797;51.662;6.748;2023-05-10T02:12:03;18.70;;;9.83;;
11481;SDS011;5797;51.662;6.748;2023-05-10T02:14:34;21.83;;;11.00;;
11481;SDS011;5797;51.662;6.748;2023-05-10T02:17:04;15.57;;;9.23;;
11481;SDS011;5797;51.662;6.748;2023-05-10T02:19:35;16.40;;;9.07;;
11481;SDS011;5797;51.662;6.748;2023-05-10T02:22:05;20.90;;;10.53;;
11481;SDS011;5797;51.662;6.748;2023-05-10T02:24:35;19.23;;;9.53;;
11481;SDS011;5797;51.662;6.748;2023-05-10T02:27:04;19.63;;;10.47;;
11481;SDS011;5797;51.662;6.748;2023-05-10T02:29:32;17.53;;;10.07;;
11481;SDS011;5797;51.662;6.748;2023-05-10T02:32:01;19.00;;;9.77;;
11481;SDS011;5797;51.662;6.748;2023-05-10T02:34:30;20.73;;;10.80;;
11481;SDS011;5797;51.662;6.748;2023-05-10T02:37:00;19.57;;;10.33;;
11481;SDS011;5797;51.662;6.748;2023-05-10T02:39:32;25.47;;;11.20;;
11481;SDS011;5797;51.662;6.748;2023-05-10T02:42:00;25.40;;;10.17;;
11481;SDS011;5797;51.662;6.748;2023-05-10T02:44:29;20.63;;;10.57;;
11481;SDS011;5797;51.662;6.748;2023-05-10T02:46:58;22.87;;;11.70;;
11481;SDS011;5797;51.662;6.748;2023-05-10T02:49:29;21.97;;;11.27;;
11481;SDS011;5797;51.662;6.748;2023-05-10T02:51:59;21.20;;;11.70;;
11481;SDS011;5797;51.662;6.748;2023-05-10T02:54:30;27.40;;;12.53;;
11481;SDS011;5797;51.662;6.748;2023-05-10T02:57:00;26.60;;;12.80;;
11481;SDS011;5797;51.662;6.748;2023-05-10T02:59:32;27.60;;;13.33;;
11481;SDS011;5797;51.662;6.748;2023-05-10T03:02:00;27.17;;;12.97;;
11481;SDS011;5797;51.662;6.748;2023-05-10T03:04:29;25.53;;;13.40;;
11481;SDS011;5797;51.662;6.748;2023-05-10T03:06:58;28.23;;;13.97;;
11481;SDS011;5797;51.662;6.748;2023-05-10T03:09:28;25.73;;;13.60;;
11481;SDS011;5797;51.662;6.748;2023-05-10T03:12:00;31.73;;;14.50;;
11481;SDS011;5797;51.662;6.748;2023-05-10T03:14:34;25.80;;;14.10;;
11481;SDS011;5797;51.662;6.748;2023-05-10T03:17:23;26.47;;;13.80;;
11481;SDS011;5797;51.662;6.748;2023-05-10T03:19:54;30.40;;;15.50;;
11481;SDS011;5797;51.662;6.748;2023-05-10T03:22:27;27.80;;;14.43;;
11481;SDS011;5797;51.662;6.748;2023-05-10T03:25:00;28.23;;;14.17;;
11481;SDS011;5797;51.662;6.748;2023-05-10T03:27:34;30.53;;;15.07;;
11481;SDS011;5797;51.662;6.748;2023-05-10T03:30:04;30.17;;;14.90;;
11481;SDS011;5797;51.662;6.748;2023-05-10T03:32:34;30.90;;;13.93;;
11481;SDS011;5797;51.662;6.748;2023-05-10T03:35:05;33.77;;;15.57;;
11481;SDS011;5797;51.662;6.748;2023-05-10T03:37:35;33.63;;;16.03;;
11481;SDS011;5797;51.662;6.748;2023-05-10T03:40:06;34.17;;;16.13;;
11481;SDS011;5797;51.662;6.748;2023-05-10T03:42:37;32.23;;;16.23;;
11481;SDS011;5797;51.662;6.748;2023-05-10T03:45:06;33.27;;;17.00;;
11481;SDS011;5797;51.662;6.748;2023-05-10T03:47:35;36.97;;;16.10;;
11481;SDS011;5797;51.662;6.748;2023-05-10T03:50:04;39.50;;;17.43;;
11481;SDS011;5797;51.662;6.748;2023-05-10T03:52:33;37.40;;;17.83;;
11481;SDS011;5797;51.662;6.748;2023-05-10T03:55:02;36.43;;;18.20;;
11481;SDS011;5797;51.662;6.748;2023-05-10T03:57:32;38.80;;;17.43;;
11481;SDS011;5797;51.662;6.748;2023-05-10T04:00:01;34.03;;;16.43;;
11481;SDS011;5797;51.662;6.748;2023-05-10T04:02:40;38.80;;;17.27;;
11481;SDS011;5797;51.662;6.748;2023-05-10T04:05:13;37.50;;;17.87;;
11481;SDS011;5797;51.662;6.748;2023-05-10T04:07:42;44.30;;;18.87;;
11481;SDS011;5797;51.662;6.748;2023-05-10T04:10:11;39.10;;;17.83;;
11481;SDS011;5797;51.662;6.748;2023-05-10T04:12:40;43.27;;;20.10;;
11481;SDS011;5797;51.662;6.748;2023-05-10T04:15:09;47.50;;;19.17;;
11481;SDS011;5797;51.662;6.748;2023-05-10T04:17:37;44.10;;;20.87;;
11481;SDS011;5797;51.662;6.748;2023-05-10T04:20:07;41.00;;;19.37;;
11481;SDS011;5797;51.662;6.748;2023-05-10T04:22:35;49.10;;;21.10;;
11481;SDS011;5797;51.662;6.748;2023-05-10T04:25:04;51.53;;;21.03;;
11481;SDS011;5797;51.662;6.748;2023-05-10T04:27:36;47.30;;;20.40;;
11481;SDS011;5797;51.662;6.748;2023-05-10T04:30:07;45.97;;;21.13;;
11481;SDS011;5797;51.662;6.748;2023-05-10T04:32:36;47.37;;;21.30;;
11481;SDS011;5797;51.662;6.748;2023-05-10T04:35:05;45.40;;;20.97;;
11481;SDS011;5797;51.662;6.748;2023-05-10T04:37:34;43.57;;;20.30;;
11481;SDS011;5797;51.662;6.748;2023-05-10T04:40:03;42.40;;;20.00;;
11481;SDS011;5797;51.662;6.748;2023-05-10T04:42:32;44.60;;;19.07;;
11481;SDS011;5797;51.662;6.748;2023-05-10T04:45:01;47.57;;;21.03;;
11481;SDS011;5797;51.662;6.748;2023-05-10T04:47:31;50.13;;;20.33;;
11481;SDS011;5797;51.662;6.748;2023-05-10T04:49:59;43.07;;;20.00;;
11481;SDS011;5797;51.662;6.748;2023-05-10T04:52:27;45.13;;;22.23;;
11481;SDS011;5797;51.662;6.748;2023-05-10T04:54:56;41.57;;;20.60;;
11481;SDS011;5797;51.662;6.748;2023-05-10T04:57:24;50.63;;;21.20;;
11481;SDS011;5797;51.662;6.748;2023-05-10T04:59:52;49.83;;;22.60;;
11481;SDS011;5797;51.662;6.748;2023-05-10T05:02:21;51.87;;;22.30;;
11481;SDS011;5797;51.662;6.748;2023-05-10T05:04:51;48.90;;;21.97;;
11481;SDS011;5797;51.662;6.748;2023-05-10T05:07:20;58.10;;;21.97;;
11481;SDS011;5797;51.662;6.748;2023-05-10T05:09:49;48.90;;;22.30;;
11481;SDS011;5797;51.662;6.748;2023-05-10T05:12:17;54.47;;;23.00;;
11481;SDS011;5797;51.662;6.748;2023-05-10T05:14:45;54.70;;;21.80;;
11481;SDS011;5797;51.662;6.748;2023-05-10T05:17:14;59.07;;;23.37;;
11481;SDS011;5797;51.662;6.748;2023-05-10T05:19:42;53.37;;;23.10;;
11481;SDS011;5797;51.662;6.748;2023-05-10T05:22:12;59.40;;;24.10;;
11481;SDS011;5797;51.662;6.748;2023-05-10T05:24:41;54.37;;;23.40;;
11481;SDS011;5797;51.662;6.748;2023-05-10T05:27:09;52.53;;;23.93;;
11481;SDS011;5797;51.662;6.748;2023-05-10T05:29:37;52.07;;;22.53;;
11481;SDS011;5797;51.662;6.748;2023-05-10T05:32:06;56.47;;;23.47;;
11481;SDS011;5797;51.662;6.748;2023-05-10T05:34:35;54.40;;;23.97;;
11481;SDS011;5797;51.662;6.748;2023-05-10T05:37:03;60.20;;;23.50;;
11481;SDS011;5797;51.662;6.748;2023-05-10T05:39:33;57.63;;;23.70;;
11481;SDS011;5797;51.662;6.748;2023-05-10T05:42:04;55.77;;;24.37;;
11481;SDS011;5797;51.662;6.748;2023-05-10T05:44:32;59.30;;;25.67;;
11481;SDS011;5797;51.662;6.748;2023-05-10T05:47:01;58.43;;;25.77;;
11481;SDS011;5797;51.662;6.748;2023-05-10T05:49:29;57.57;;;24.10;;
11481;SDS011;5797;51.662;6.748;2023-05-10T05:51:58;57.60;;;25.07;;
11481;SDS011;5797;51.662;6.748;2023-05-10T05:54:27;63.37;;;24.27;;
11481;SDS011;5797;51.662;6.748;2023-05-10T05:56:57;54.17;;;24.33;;
11481;SDS011;5797;51.662;6.748;2023-05-10T05:59:27;53.60;;;24.63;;
11481;SDS011;5797;51.662;6.748;2023-05-10T06:01:56;59.37;;;24.33;;
11481;SDS011;5797;51.662;6.748;2023-05-10T06:04:24;60.47;;;25.13;;
11481;SDS011;5797;51.662;6.748;2023-05-10T06:06:52;58.70;;;25.23;;
11481;SDS011;5797;51.662;6.748;2023-05-10T06:09:21;52.83;;;24.07;;
11481;SDS011;5797;51.662;6.748;2023-05-10T06:11:50;53.20;;;23.77;;
11481;SDS011;5797;51.662;6.748;2023-05-10T06:14:21;52.37;;;24.67;;
11481;SDS011;5797;51.662;6.748;2023-05-10T06:16:49;53.93;;;24.60;;
11481;SDS011;5797;51.662;6.748;2023-05-10T06:19:17;55.83;;;24.67;;
11481;SDS011;5797;51.662;6.748;2023-05-10T06:21:46;60.50;;;24.07;;
11481;SDS011;5797;51.662;6.748;2023-05-10T06:24:14;61.77;;;25.30;;
11481;SDS011;5797;51.662;6.748;2023-05-10T06:26:42;54.67;;;24.17;;
11481;SDS011;5797;51.662;6.748;2023-05-10T06:29:11;55.77;;;24.80;;
11481;SDS011;5797;51.662;6.748;2023-05-10T06:31:40;52.10;;;24.00;;
11481;SDS011;5797;51.662;6.748;2023-05-10T06:34:09;55.27;;;26.37;;
11481;SDS011;5797;51.662;6.748;2023-05-10T06:36:38;57.53;;;26.57;;
11481;SDS011;5797;51.662;6.748;2023-05-10T06:39:06;54.80;;;24.20;;
11481;SDS011;5797;51.662;6.748;2023-05-10T06:41:35;53.93;;;25.00;;
11481;SDS011;5797;51.662;6.748;2023-05-10T06:44:03;54.40;;;24.47;;
11481;SDS011;5797;51.662;6.748;2023-05-10T06:46:32;60.40;;;24.43;;
11481;SDS011;5797;51.662;6.748;2023-05-10T06:49:01;54.83;;;24.77;;
11481;SDS011;5797;51.662;6.748;2023-05-10T06:51:30;56.47;;;24.43;;
11481;SDS011;5797;51.662;6.748;2023-05-10T06:53:59;54.17;;;24.43;;
11481;SDS011;5797;51.662;6.748;2023-05-10T06:56:28;51.70;;;24.73;;
11481;SDS011;5797;51.662;6.748;2023-05-10T06:58:56;62.20;;;25.57;;
11481;SDS011;5797;51.662;6.748;2023-05-10T07:01:24;54.97;;;24.90;;
11481;SDS011;5797;51.662;6.748;2023-05-10T07:03:53;54.63;;;24.83;;
11481;SDS011;5797;51.662;6.748;2023-05-10T07:06:22;54.83;;;25.00;;
11481;SDS011;5797;51.662;6.748;2023-05-10T07:08:59;56.93;;;25.83;;
11481;SDS011;5797;51.662;6.748;2023-05-10T07:11:27;49.87;;;25.00;;
11481;SDS011;5797;51.662;6.748;2023-05-10T07:13:55;58.10;;;26.27;;
11481;SDS011;5797;51.662;6.748;2023-05-10T07:16:24;59.67;;;25.97;;
11481;SDS011;5797;51.662;6.748;2023-05-10T07:18:52;51.73;;;25.20;;
11481;SDS011;5797;51.662;6.748;2023-05-10T07:21:20;59.77;;;25.97;;
11481;SDS011;5797;51.662;6.748;2023-05-10T07:23:51;58.30;;;26.17;;
11481;SDS011;5797;51.662;6.748;2023-05-10T07:26:19;56.67;;;25.13;;
11481;SDS011;5797;51.662;6.748;2023-05-10T07:28:49;57.97;;;25.70;;
11481;SDS011;5797;51.662;6.748;2023-05-10T07:31:17;51.67;;;24.83;;
11481;SDS011;5797;51.662;6.748;2023-05-10T07:33:45;54.73;;;24.40;;
11481;SDS011;5797;51.662;6.748;2023-05-10T07:36:14;47.43;;;23.70;;
11481;SDS011;5797;51.662;6.748;2023-05-10T07:38:43;49.13;;;23.27;;
11481;SDS011;5797;51.662;6.748;2023-05-10T07:41:12;49.00;;;24.83;;
11481;SDS011;5797;51.662;6.748;2023-05-10T07:43:40;56.23;;;25.43;;
11481;SDS011;5797;51.662;6.748;2023-05-10T07:46:08;53.10;;;25.17;;
11481;SDS011;5797;51.662;6.748;2023-05-10T07:48:37;52.17;;;25.70;;
11481;SDS011;5797;51.662;6.748;2023-05-10T07:51:06;51.33;;;24.30;;
11481;SDS011;5797;51.662;6.748;2023-05-10T07:53:36;53.93;;;25.10;;
11481;SDS011;5797;51.662;6.748;2023-05-10T07:58:54;47.00;;;23.30;;
11481;SDS011;5797;51.662;6.748;2023-05-10T08:01:22;48.73;;;23.90;;
11481;SDS011;5797;51.662;6.748;2023-05-10T08:03:51;50.57;;;23.70;;
11481;SDS011;5797;51.662;6.748;2023-05-10T08:06:20;40.30;;;21.83;;
11481;SDS011;5797;51.662;6.748;2023-05-10T08:08:49;53.03;;;24.30;;
11481;SDS011;5797;51.662;6.748;2023-05-10T08:11:17;52.47;;;23.17;;
11481;SDS011;5797;51.662;6.748;2023-05-10T08:13:49;48.70;;;23.20;;
11481;SDS011;5797;51.662;6.748;2023-05-10T08:16:18;43.63;;;22.20;;
11481;SDS011;5797;51.662;6.748;2023-05-10T08:18:46;49.57;;;22.80;;
11481;SDS011;5797;51.662;6.748;2023-05-10T08:21:16;41.37;;;20.97;;
11481;SDS011;5797;51.662;6.748;2023-05-10T08:23:44;45.20;;;19.97;;
11481;SDS011;5797;51.662;6.748;2023-05-10T08:26:12;44.57;;;21.33;;
11481;SDS011;5797;51.662;6.748;2023-05-10T08:28:40;40.00;;;19.90;;
11481;SDS011;5797;51.662;6.748;2023-05-10T08:31:10;39.27;;;18.83;;
11481;SDS011;5797;51.662;6.748;2023-05-10T08:33:38;44.63;;;18.53;;
11481;SDS011;5797;51.662;6.748;2023-05-10T08:36:08;42.93;;;18.50;;
11481;SDS011;5797;51.662;6.748;2023-05-10T08:38:37;37.70;;;17.17;;
11481;SDS011;5797;51.662;6.748;2023-05-10T08:41:05;32.20;;;17.50;;
11481;SDS011;5797;51.662;6.748;2023-05-10T08:43:35;36.67;;;17.63;;
11481;SDS011;5797;51.662;6.748;2023-05-10T08:46:04;39.43;;;17.93;;
11481;SDS011;5797;51.662;6.748;2023-05-10T08:48:34;34.27;;;17.23;;
11481;SDS011;5797;51.662;6.748;2023-05-10T08:51:03;36.17;;;18.23;;
11481;SDS011;5797;51.662;6.748;2023-05-10T08:53:32;32.33;;;15.97;;
11481;SDS011;5797;51.662;6.748;2023-05-10T08:56:01;36.90;;;17.47;;
11481;SDS011;5797;51.662;6.748;2023-05-10T08:58:30;33.20;;;15.93;;
11481;SDS011;5797;51.662;6.748;2023-05-10T09:00:59;40.73;;;17.90;;
11481;SDS011;5797;51.662;6.748;2023-05-10T09:03:27;39.27;;;18.77;;
11481;SDS011;5797;51.662;6.748;2023-05-10T09:06:15;39.67;;;18.53;;
11481;SDS011;5797;51.662;6.748;2023-05-10T09:08:43;32.63;;;17.23;;
11481;SDS011;5797;51.662;6.748;2023-05-10T09:11:13;33.30;;;17.47;;
11481;SDS011;5797;51.662;6.748;2023-05-10T09:13:42;35.80;;;17.17;;
11481;SDS011;5797;51.662;6.748;2023-05-10T09:16:11;36.20;;;17.27;;
11481;SDS011;5797;51.662;6.748;2023-05-10T09:18:47;31.13;;;17.20;;
11481;SDS011;5797;51.662;6.748;2023-05-10T09:21:17;34.10;;;17.13;;
11481;SDS011;5797;51.662;6.748;2023-05-10T09:23:47;38.60;;;18.80;;
11481;SDS011;5797;51.662;6.748;2023-05-10T09:26:16;36.63;;;17.27;;
11481;SDS011;5797;51.662;6.748;2023-05-10T09:28:51;33.47;;;16.67;;
11481;SDS011;5797;51.662;6.748;2023-05-10T09:31:21;32.67;;;17.17;;
11481;SDS011;5797;51.662;6.748;2023-05-10T09:33:50;37.43;;;17.70;;
11481;SDS011;5797;51.662;6.748;2023-05-10T09:36:21;36.47;;;16.97;;
11481;SDS011;5797;51.662;6.748;2023-05-10T09:38:49;31.87;;;17.70;;
11481;SDS011;5797;51.662;6.748;2023-05-10T09:41:19;31.30;;;17.47;;
11481;SDS011;5797;51.662;6.748;2023-05-10T09:43:49;32.83;;;16.20;;
11481;SDS011;5797;51.662;6.748;2023-05-10T09:46:18;32.83;;;16.07;;
11481;SDS011;5797;51.662;6.748;2023-05-10T09:48:46;30.47;;;16.50;;
11481;SDS011;5797;51.662;6.748;2023-05-10T09:51:18;27.50;;;15.07;;
11481;SDS011;5797;51.662;6.748;2023-05-10T09:53:48;30.27;;;15.97;;
11481;SDS011;5797;51.662;6.748;2023-05-10T09:56:37;33.73;;;16.43;;
11481;SDS011;5797;51.662;6.748;2023-05-10T09:59:07;24.50;;;14.20;;
11481;SDS011;5797;51.662;6.748;2023-05-10T10:01:37;25.43;;;14.57;;
11481;SDS011;5797;51.662;6.748;2023-05-10T10:04:06;30.13;;;16.37;;
11481;SDS011;5797;51.662;6.748;2023-05-10T10:06:35;29.83;;;15.20;;
11481;SDS011;5797;51.662;6.748;2023-05-10T10:09:07;30.37;;;15.13;;
11481;SDS011;5797;51.662;6.748;2023-05-10T10:11:36;28.40;;;14.97;;
11481;SDS011;5797;51.662;6.748;2023-05-10T10:14:05;29.13;;;15.17;;
11481;SDS011;5797;51.662;6.748;2023-05-10T10:16:34;27.17;;;13.33;;
11481;SDS011;5797;51.662;6.748;2023-05-10T10:19:05;23.13;;;13.03;;
11481;SDS011;5797;51.662;6.748;2023-05-10T10:21:34;21.87;;;12.53;;
11481;SDS011;5797;51.662;6.748;2023-05-10T10:24:02;23.90;;;12.70;;
11481;SDS011;5797;51.662;6.748;2023-05-10T10:26:34;23.47;;;13.43;;
11481;SDS011;5797;51.662;6.748;2023-05-10T10:29:07;23.50;;;11.90;;
11481;SDS011;5797;51.662;6.748;2023-05-10T10:31:41;20.87;;;11.60;;
11481;SDS011;5797;51.662;6.748;2023-05-10T10:34:17;22.00;;;12.17;;
11481;SDS011;5797;51.662;6.748;2023-05-10T10:36:53;22.53;;;12.20;;
11481;SDS011;5797;51.662;6.748;2023-05-10T10:39:23;21.50;;;12.37;;
11481;SDS011;5797;51.662;6.748;2023-05-10T10:41:54;23.10;;;12.10;;
11481;SDS011;5797;51.662;6.748;2023-05-10T10:44:33;19.23;;;12.40;;
11481;SDS011;5797;51.662;6.748;2023-05-10T10:47:05;18.97;;;11.27;;
11481;SDS011;5797;51.662;6.748;2023-05-10T10:49:43;19.20;;;11.47;;
11481;SDS011;5797;51.662;6.748;2023-05-10T10:52:25;24.70;;;12.17;;
11481;SDS011;5797;51.662;6.748;2023-05-10T10:55:00;21.40;;;12.00;;
11481;SDS011;5797;51.662;6.748;2023-05-10T10:57:42;25.13;;;12.60;;
11481;SDS011;5797;51.662;6.748;2023-05-10T11:00:22;21.27;;;12.43;;
11481;SDS011;5797;51.662;6.748;2023-05-10T11:02:52;21.87;;;12.33;;
11481;SDS011;5797;51.662;6.748;2023-05-10T11:08:09;24.83;;;13.63;;
11481;SDS011;5797;51.662;6.748;2023-05-10T11:10:39;23.00;;;14.03;;
11481;SDS011;5797;51.662;6.748;2023-05-10T11:13:09;25.07;;;13.60;;
11481;SDS011;5797;51.662;6.748;2023-05-10T11:15:38;23.67;;;14.03;;
11481;SDS011;5797;51.662;6.748;2023-05-10T11:18:17;20.20;;;13.03;;
11481;SDS011;5797;51.662;6.748;2023-05-10T11:20:49;23.40;;;13.20;;
11481;SDS011;5797;51.662;6.748;2023-05-10T11:23:18;22.77;;;13.57;;
11481;SDS011;5797;51.662;6.748;2023-05-10T11:25:48;23.00;;;13.93;;
11481;SDS011;5797;51.662;6.748;2023-05-10T11:28:18;24.20;;;13.77;;
11481;SDS011;5797;51.662;6.748;2023-05-10T11:30:47;24.77;;;14.67;;
11481;SDS011;5797;51.662;6.748;2023-05-10T11:33:16;25.00;;;15.07;;
11481;SDS011;5797;51.662;6.748;2023-05-10T11:35:46;27.57;;;16.73;;
11481;SDS011;5797;51.662;6.748;2023-05-10T11:38:14;25.97;;;14.93;;
11481;SDS011;5797;51.662;6.748;2023-05-10T11:40:43;27.80;;;14.80;;
11481;SDS011;5797;51.662;6.748;2023-05-10T11:43:11;24.20;;;14.73;;
11481;SDS011;5797;51.662;6.748;2023-05-10T11:45:41;27.63;;;16.23;;
11481;SDS011;5797;51.662;6.748;2023-05-10T11:48:10;28.87;;;15.93;;
11481;SDS011;5797;51.662;6.748;2023-05-10T11:50:38;28.37;;;15.27;;
11481;SDS011;5797;51.662;6.748;2023-05-10T11:53:06;22.50;;;14.37;;
11481;SDS011;5797;51.662;6.748;2023-05-10T11:55:34;25.03;;;15.47;;
11481;SDS011;5797;51.662;6.748;2023-05-10T11:58:03;23.60;;;13.83;;
11481;SDS011;5797;51.662;6.748;2023-05-10T12:00:31;27.63;;;15.30;;
11481;SDS011;5797;51.662;6.748;2023-05-10T12:03:01;21.37;;;13.77;;
11481;SDS011;5797;51.662;6.748;2023-05-10T12:05:31;24.90;;;14.37;;
11481;SDS011;5797;51.662;6.748;2023-05-10T12:08:10;27.93;;;14.40;;
11481;SDS011;5797;51.662;6.748;2023-05-10T12:10:39;23.00;;;12.93;;
11481;SDS011;5797;51.662;6.748;2023-05-10T12:13:10;20.63;;;13.27;;
11481;SDS011;5797;51.662;6.748;2023-05-10T12:15:39;22.50;;;13.50;;
11481;SDS011;5797;51.662;6.748;2023-05-10T12:18:10;19.77;;;12.57;;
11481;SDS011;5797;51.662;6.748;2023-05-10T12:20:40;19.60;;;11.60;;
11481;SDS011;5797;51.662;6.748;2023-05-10T12:23:09;21.43;;;12.13;;
11481;SDS011;5797;51.662;6.748;2023-05-10T12:25:37;20.70;;;11.93;;
11481;SDS011;5797;51.662;6.748;2023-05-10T12:28:08;16.53;;;11.30;;
11481;SDS011;5797;51.662;6.748;2023-05-10T12:30:37;19.97;;;12.43;;
11481;SDS011;5797;51.662;6.748;2023-05-10T12:33:10;18.27;;;11.97;;
11481;SDS011;5797;51.662;6.748;2023-05-10T12:35:44;17.90;;;11.60;;
11481;SDS011;5797;51.662;6.748;2023-05-10T12:38:26;17.77;;;11.47;;
11481;SDS011;5797;51.662;6.748;2023-05-10T12:40:56;21.20;;;13.20;;
11481;SDS011;5797;51.662;6.748;2023-05-10T12:43:25;18.17;;;11.27;;
11481;SDS011;5797;51.662;6.748;2023-05-10T12:45:54;19.43;;;11.97;;
11481;SDS011;5797;51.662;6.748;2023-05-10T12:48:24;16.33;;;11.07;;
11481;SDS011;5797;51.662;6.748;2023-05-10T12:50:52;19.03;;;11.33;;
11481;SDS011;5797;51.662;6.748;2023-05-10T12:53:21;16.50;;;11.27;;
11481;SDS011;5797;51.662;6.748;2023-05-10T12:55:49;16.30;;;10.80;;
11481;SDS011;5797;51.662;6.748;2023-05-10T12:58:17;16.03;;;11.23;;
11481;SDS011;5797;51.662;6.748;2023-05-10T13:01:00;16.93;;;10.77;;
11481;SDS011;5797;51.662;6.748;2023-05-10T13:03:30;15.00;;;10.77;;
11481;SDS011;5797;51.662;6.748;2023-05-10T13:05:59;16.20;;;10.40;;
11481;SDS011;5797;51.662;6.748;2023-05-10T13:08:27;14.03;;;9.50;;
11481;SDS011;5797;51.662;6.748;2023-05-10T13:11:00;17.37;;;10.93;;
11481;SDS011;5797;51.662;6.748;2023-05-10T13:13:29;14.57;;;9.77;;
11481;SDS011;5797;51.662;6.748;2023-05-10T13:15:58;13.93;;;9.87;;
11481;SDS011;5797;51.662;6.748;2023-05-10T13:18:26;12.37;;;9.30;;
11481;SDS011;5797;51.662;6.748;2023-05-10T13:20:56;18.37;;;11.40;;
11481;SDS011;5797;51.662;6.748;2023-05-10T13:23:24;18.30;;;11.57;;
11481;SDS011;5797;51.662;6.748;2023-05-10T13:25:53;15.90;;;10.97;;
11481;SDS011;5797;51.662;6.748;2023-05-10T13:28:21;20.10;;;11.50;;
11481;SDS011;5797;51.662;6.748;2023-05-10T13:30:50;16.90;;;12.23;;
11481;SDS011;5797;51.662;6.748;2023-05-10T13:33:18;17.87;;;11.07;;
11481;SDS011;5797;51.662;6.748;2023-05-10T13:35:46;16.47;;;11.10;;
11481;SDS011;5797;51.662;6.748;2023-05-10T13:38:16;15.47;;;11.00;;
11481;SDS011;5797;51.662;6.748;2023-05-10T13:40:47;15.37;;;10.40;;
11481;SDS011;5797;51.662;6.748;2023-05-10T13:43:19;16.60;;;11.23;;
11481;SDS011;5797;51.662;6.748;2023-05-10T13:45:47;19.33;;;11.40;;
11481;SDS011;5797;51.662;6.748;2023-05-10T13:48:15;14.60;;;10.00;;
11481;SDS011;5797;51.662;6.748;2023-05-10T13:50:44;14.53;;;9.07;;
11481;SDS011;5797;51.662;6.748;2023-05-10T13:53:13;16.90;;;9.60;;
11481;SDS011;5797;51.662;6.748;2023-05-10T13:55:42;12.40;;;9.80;;
11481;SDS011;5797;51.662;6.748;2023-05-10T13:58:11;11.83;;;8.90;;
11481;SDS011;5797;51.662;6.748;2023-05-10T14:00:39;15.03;;;9.90;;
11481;SDS011;5797;51.662;6.748;2023-05-10T14:03:08;12.93;;;9.60;;
11481;SDS011;5797;51.662;6.748;2023-05-10T14:05:38;15.17;;;9.87;;
11481;SDS011;5797;51.662;6.748;2023-05-10T14:08:07;14.10;;;9.60;;
11481;SDS011;5797;51.662;6.748;2023-05-10T14:10:36;11.30;;;8.73;;
11481;SDS011;5797;51.662;6.748;2023-05-10T14:13:06;14.30;;;9.30;;
11481;SDS011;5797;51.662;6.748;2023-05-10T14:15:34;14.53;;;9.17;;
11481;SDS011;5797;51.662;6.748;2023-05-10T14:18:03;12.53;;;8.00;;
11481;SDS011;5797;51.662;6.748;2023-05-10T14:20:31;13.30;;;8.80;;
11481;SDS011;5797;51.662;6.748;2023-05-10T14:23:00;14.70;;;8.17;;
11481;SDS011;5797;51.662;6.748;2023-05-10T14:25:29;12.63;;;8.70;;
11481;SDS011;5797;51.662;6.748;2023-05-10T14:27:57;12.33;;;8.00;;
11481;SDS011;5797;51.662;6.748;2023-05-10T14:30:27;12.53;;;8.23;;
11481;SDS011;5797;51.662;6.748;2023-05-10T14:32:56;12.07;;;9.23;;
11481;SDS011;5797;51.662;6.748;2023-05-10T14:35:25;11.20;;;8.37;;
11481;SDS011;5797;51.662;6.748;2023-05-10T14:37:53;14.40;;;8.67;;
11481;SDS011;5797;51.662;6.748;2023-05-10T14:40:22;13.20;;;7.90;;
11481;SDS011;5797;51.662;6.748;2023-05-10T14:42:51;11.67;;;8.53;;
11481;SDS011;5797;51.662;6.748;2023-05-10T14:45:20;12.53;;;8.57;;
11481;SDS011;5797;51.662;6.748;2023-05-10T14:47:50;13.50;;;8.70;;
11481;SDS011;5797;51.662;6.748;2023-05-10T14:50:19;14.40;;;8.00;;
11481;SDS011;5797;51.662;6.748;2023-05-10T14:53:02;9.97;;;7.70;;
11481;SDS011;5797;51.662;6.748;2023-05-10T14:55:30;12.50;;;7.90;;
11481;SDS011;5797;51.662;6.748;2023-05-10T14:57:59;15.27;;;7.23;;
11481;SDS011;5797;51.662;6.748;2023-05-10T15:00:29;9.30;;;7.10;;